sensor_id;sensor_type;location;lat;lon;timestamp;P1;durP1;ratioP1;P2;durP2;ratioP2
12129;SDS011;6128;59.340;18.040;2023-07-09T00:02:12;1.80;;;1.40;;
12129;SDS011;6128;59.340;18.040;2023-07-09T00:04:40;1.40;;;1.30;;
12129;SDS011;6128;59.340;18.040;2023-07-09T00:07:11;1.83;;;1.60;;
12129;SDS011;6128;59.340;18.040;2023-07-09T00:09:43;1.53;;;1.27;;
12129;SDS011;6128;59.340;18.040;2023-07-09T00:12:14;3.40;;;1.30;;
12129;SDS011;6128;59.340;18.040;2023-07-09T00:14:42;1.20;;;1.20;;
12129;SDS011;6128;59.340;18.040;2023-07-09T00:17:11;1.23;;;1.13;;
12129;SDS011;6128;59.340;18.040;2023-07-09T00:19:45;1.30;;;1.17;;
12129;SDS011;6128;59.340;18.040;2023-07-09T00:22:13;1.73;;;1.60;;
12129;SDS011;6128;59.340;18.040;2023-07-09T00:24:46;1.77;;;1.10;;
12129;SDS011;6128;59.340;18.040;2023-07-09T00:27:17;1.47;;;1.30;;
12129;SDS011;6128;59.340;18.040;2023-07-09T00:29:46;1.50;;;1.40;;
12129;SDS011;6128;59.340;18.040;2023-07-09T00:32:14;1.10;;;1.10;;
12129;SDS011;6128;59.340;18.040;2023-07-09T00:34:42;1.47;;;1.27;;
12129;SDS011;6128;59.340;18.040;2023-07-09T00:37:13;1.40;;;1.30;;
12129;SDS011;6128;59.340;18.040;2023-07-09T00:39:41;1.33;;;1.23;;
12129;SDS011;6128;59.340;18.040;2023-07-09T00:42:11;2.07;;;1.10;;
12129;SDS011;6128;59.340;18.040;2023-07-09T00:44:44;2.43;;;1.27;;
12129;SDS011;6128;59.340;18.040;2023-07-09T00:47:17;1.20;;;1.10;;
12129;SDS011;6128;59.340;18.040;2023-07-09T00:50:02;1.27;;;1.10;;
12129;SDS011;6128;59.340;18.040;2023-07-09T00:52:36;2.73;;;1.00;;
12129;SDS011;6128;59.340;18.040;2023-07-09T00:55:11;2.20;;;1.40;;
12129;SDS011;6128;59.340;18.040;2023-07-09T00:57:41;2.50;;;1.70;;
12129;SDS011;6128;59.340;18.040;2023-07-09T01:00:16;2.13;;;1.60;;
12129;SDS011;6128;59.340;18.040;2023-07-09T01:02:45;3.63;;;1.60;;
12129;SDS011;6128;59.340;18.040;2023-07-09T01:05:14;1.80;;;1.47;;
12129;SDS011;6128;59.340;18.040;2023-07-09T01:07:45;2.20;;;1.30;;
12129;SDS011;6128;59.340;18.040;2023-07-09T01:10:13;2.40;;;1.60;;
12129;SDS011;6128;59.340;18.040;2023-07-09T01:12:41;2.07;;;1.50;;
12129;SDS011;6128;59.340;18.040;2023-07-09T01:15:09;3.37;;;1.70;;
12129;SDS011;6128;59.340;18.040;2023-07-09T01:17:39;1.57;;;1.47;;
12129;SDS011;6128;59.340;18.040;2023-07-09T01:20:14;1.50;;;1.40;;
12129;SDS011;6128;59.340;18.040;2023-07-09T01:22:47;2.07;;;1.80;;
12129;SDS011;6128;59.340;18.040;2023-07-09T01:25:15;2.73;;;2.20;;
12129;SDS011;6128;59.340;18.040;2023-07-09T01:27:44;3.90;;;2.40;;
12129;SDS011;6128;59.340;18.040;2023-07-09T01:30:15;2.77;;;1.80;;
12129;SDS011;6128;59.340;18.040;2023-07-09T01:32:47;2.47;;;2.00;;
12129;SDS011;6128;59.340;18.040;2023-07-09T01:35:16;2.73;;;2.30;;
12129;SDS011;6128;59.340;18.040;2023-07-09T01:37:45;2.57;;;2.20;;
12129;SDS011;6128;59.340;18.040;2023-07-09T01:40:15;2.53;;;1.93;;
12129;SDS011;6128;59.340;18.040;2023-07-09T01:42:45;2.23;;;1.50;;
12129;SDS011;6128;59.340;18.040;2023-07-09T01:45:13;1.70;;;1.60;;
12129;SDS011;6128;59.340;18.040;2023-07-09T01:47:40;2.20;;;1.57;;
12129;SDS011;6128;59.340;18.040;2023-07-09T01:50:09;1.83;;;1.57;;
12129;SDS011;6128;59.340;18.040;2023-07-09T01:52:37;2.63;;;1.80;;
12129;SDS011;6128;59.340;18.040;2023-07-09T01:55:09;2.10;;;1.90;;
12129;SDS011;6128;59.340;18.040;2023-07-09T01:57:38;1.37;;;1.27;;
12129;SDS011;6128;59.340;18.040;2023-07-09T02:00:07;1.53;;;1.43;;
12129;SDS011;6128;59.340;18.040;2023-07-09T02:02:36;1.57;;;1.13;;
12129;SDS011;6128;59.340;18.040;2023-07-09T02:05:04;1.50;;;1.40;;
12129;SDS011;6128;59.340;18.040;2023-07-09T02:07:32;3.90;;;1.37;;
12129;SDS011;6128;59.340;18.040;2023-07-09T02:09:59;2.50;;;1.30;;
12129;SDS011;6128;59.340;18.040;2023-07-09T02:12:29;1.27;;;1.20;;
12129;SDS011;6128;59.340;18.040;2023-07-09T02:14:56;1.60;;;1.50;;
12129;SDS011;6128;59.340;18.040;2023-07-09T02:17:23;1.43;;;1.20;;
12129;SDS011;6128;59.340;18.040;2023-07-09T02:19:50;1.90;;;1.33;;
12129;SDS011;6128;59.340;18.040;2023-07-09T02:22:17;2.30;;;1.27;;
12129;SDS011;6128;59.340;18.040;2023-07-09T02:24:45;1.27;;;1.17;;
12129;SDS011;6128;59.340;18.040;2023-07-09T02:27:15;1.73;;;1.57;;
12129;SDS011;6128;59.340;18.040;2023-07-09T02:29:45;1.67;;;1.57;;
12129;SDS011;6128;59.340;18.040;2023-07-09T02:32:13;1.30;;;1.20;;
12129;SDS011;6128;59.340;18.040;2023-07-09T02:34:44;2.17;;;1.53;;
12129;SDS011;6128;59.340;18.040;2023-07-09T02:37:14;1.93;;;1.23;;
12129;SDS011;6128;59.340;18.040;2023-07-09T02:39:43;1.50;;;1.40;;
12129;SDS011;6128;59.340;18.040;2023-07-09T02:42:11;1.43;;;1.13;;
12129;SDS011;6128;59.340;18.040;2023-07-09T02:44:40;1.23;;;1.20;;
12129;SDS011;6128;59.340;18.040;2023-07-09T02:47:09;2.47;;;1.50;;
12129;SDS011;6128;59.340;18.040;2023-07-09T02:49:36;1.43;;;1.33;;
12129;SDS011;6128;59.340;18.040;2023-07-09T02:52:04;2.07;;;1.50;;
12129;SDS011;6128;59.340;18.040;2023-07-09T02:54:32;1.60;;;1.50;;
12129;SDS011;6128;59.340;18.040;2023-07-09T02:56:59;2.53;;;1.40;;
12129;SDS011;6128;59.340;18.040;2023-07-09T02:59:27;3.30;;;1.60;;
12129;SDS011;6128;59.340;18.040;2023-07-09T03:01:54;1.70;;;1.60;;
12129;SDS011;6128;59.340;18.040;2023-07-09T03:04:23;1.80;;;1.53;;
12129;SDS011;6128;59.340;18.040;2023-07-09T03:06:50;1.80;;;1.70;;
12129;SDS011;6128;59.340;18.040;2023-07-09T03:09:18;3.37;;;1.70;;
12129;SDS011;6128;59.340;18.040;2023-07-09T03:11:45;2.07;;;1.60;;
12129;SDS011;6128;59.340;18.040;2023-07-09T03:14:14;1.50;;;1.40;;
12129;SDS011;6128;59.340;18.040;2023-07-09T03:16:41;1.70;;;1.60;;
12129;SDS011;6128;59.340;18.040;2023-07-09T03:19:09;2.00;;;1.80;;
12129;SDS011;6128;59.340;18.040;2023-07-09T03:21:40;2.27;;;1.80;;
12129;SDS011;6128;59.340;18.040;2023-07-09T03:24:07;2.23;;;2.03;;
12129;SDS011;6128;59.340;18.040;2023-07-09T03:26:34;3.97;;;1.93;;
12129;SDS011;6128;59.340;18.040;2023-07-09T03:29:02;2.30;;;1.63;;
12129;SDS011;6128;59.340;18.040;2023-07-09T03:31:29;2.10;;;2.00;;
12129;SDS011;6128;59.340;18.040;2023-07-09T03:34:00;2.83;;;2.00;;
12129;SDS011;6128;59.340;18.040;2023-07-09T03:36:27;2.20;;;2.00;;
12129;SDS011;6128;59.340;18.040;2023-07-09T03:38:56;2.47;;;2.30;;
12129;SDS011;6128;59.340;18.040;2023-07-09T03:41:26;2.30;;;2.10;;
12129;SDS011;6128;59.340;18.040;2023-07-09T03:43:53;2.27;;;2.17;;
12129;SDS011;6128;59.340;18.040;2023-07-09T03:46:20;2.30;;;2.10;;
12129;SDS011;6128;59.340;18.040;2023-07-09T03:48:47;2.20;;;2.10;;
12129;SDS011;6128;59.340;18.040;2023-07-09T03:51:15;3.00;;;2.00;;
12129;SDS011;6128;59.340;18.040;2023-07-09T03:53:47;2.60;;;2.40;;
12129;SDS011;6128;59.340;18.040;2023-07-09T03:56:15;2.40;;;2.20;;
12129;SDS011;6128;59.340;18.040;2023-07-09T03:58:42;2.30;;;2.17;;
12129;SDS011;6128;59.340;18.040;2023-07-09T04:01:09;2.30;;;2.10;;
12129;SDS011;6128;59.340;18.040;2023-07-09T04:03:36;2.20;;;2.00;;
12129;SDS011;6128;59.340;18.040;2023-07-09T04:06:03;2.60;;;2.40;;
12129;SDS011;6128;59.340;18.040;2023-07-09T04:08:31;2.67;;;2.47;;
12129;SDS011;6128;59.340;18.040;2023-07-09T04:10:58;2.30;;;2.20;;
12129;SDS011;6128;59.340;18.040;2023-07-09T04:13:28;2.47;;;2.20;;
12129;SDS011;6128;59.340;18.040;2023-07-09T04:15:55;2.90;;;2.40;;
12129;SDS011;6128;59.340;18.040;2023-07-09T04:18:22;2.90;;;2.70;;
12129;SDS011;6128;59.340;18.040;2023-07-09T04:20:49;2.70;;;2.50;;
12129;SDS011;6128;59.340;18.040;2023-07-09T04:23:17;2.60;;;2.40;;
12129;SDS011;6128;59.340;18.040;2023-07-09T04:25:44;2.43;;;2.23;;
12129;SDS011;6128;59.340;18.040;2023-07-09T04:28:11;2.30;;;2.10;;
12129;SDS011;6128;59.340;18.040;2023-07-09T04:30:45;2.80;;;2.53;;
12129;SDS011;6128;59.340;18.040;2023-07-09T04:33:14;2.43;;;2.27;;
12129;SDS011;6128;59.340;18.040;2023-07-09T04:35:43;2.50;;;2.40;;
12129;SDS011;6128;59.340;18.040;2023-07-09T04:38:11;2.60;;;2.40;;
12129;SDS011;6128;59.340;18.040;2023-07-09T04:40:38;2.27;;;2.17;;
12129;SDS011;6128;59.340;18.040;2023-07-09T04:43:05;2.60;;;2.40;;
12129;SDS011;6128;59.340;18.040;2023-07-09T04:45:33;2.47;;;2.27;;
12129;SDS011;6128;59.340;18.040;2023-07-09T04:48:01;3.03;;;2.73;;
12129;SDS011;6128;59.340;18.040;2023-07-09T04:50:29;2.70;;;2.50;;
12129;SDS011;6128;59.340;18.040;2023-07-09T04:52:56;2.77;;;2.57;;
12129;SDS011;6128;59.340;18.040;2023-07-09T04:55:23;2.13;;;2.03;;
12129;SDS011;6128;59.340;18.040;2023-07-09T04:57:51;2.43;;;2.30;;
12129;SDS011;6128;59.340;18.040;2023-07-09T05:00:19;2.37;;;2.23;;
12129;SDS011;6128;59.340;18.040;2023-07-09T05:02:46;2.70;;;2.50;;
12129;SDS011;6128;59.340;18.040;2023-07-09T05:05:14;2.53;;;2.33;;
12129;SDS011;6128;59.340;18.040;2023-07-09T05:07:41;2.50;;;2.27;;
12129;SDS011;6128;59.340;18.040;2023-07-09T05:10:09;2.80;;;2.50;;
12129;SDS011;6128;59.340;18.040;2023-07-09T05:12:46;2.50;;;2.30;;
12129;SDS011;6128;59.340;18.040;2023-07-09T05:15:15;2.60;;;2.40;;
12129;SDS011;6128;59.340;18.040;2023-07-09T05:17:43;2.83;;;2.63;;
12129;SDS011;6128;59.340;18.040;2023-07-09T05:20:11;2.83;;;2.63;;
12129;SDS011;6128;59.340;18.040;2023-07-09T05:22:40;3.10;;;2.90;;
12129;SDS011;6128;59.340;18.040;2023-07-09T05:25:07;2.63;;;2.43;;
12129;SDS011;6128;59.340;18.040;2023-07-09T05:27:34;2.60;;;2.40;;
12129;SDS011;6128;59.340;18.040;2023-07-09T05:30:02;2.70;;;2.53;;
12129;SDS011;6128;59.340;18.040;2023-07-09T05:32:29;2.43;;;2.23;;
12129;SDS011;6128;59.340;18.040;2023-07-09T05:34:57;3.03;;;2.60;;
12129;SDS011;6128;59.340;18.040;2023-07-09T05:37:25;2.97;;;2.67;;
12129;SDS011;6128;59.340;18.040;2023-07-09T05:39:54;2.33;;;2.23;;
12129;SDS011;6128;59.340;18.040;2023-07-09T05:42:21;2.83;;;2.50;;
12129;SDS011;6128;59.340;18.040;2023-07-09T05:44:48;3.10;;;2.77;;
12129;SDS011;6128;59.340;18.040;2023-07-09T05:47:15;2.87;;;2.67;;
12129;SDS011;6128;59.340;18.040;2023-07-09T05:49:43;2.97;;;2.37;;
12129;SDS011;6128;59.340;18.040;2023-07-09T05:52:14;2.73;;;2.53;;
12129;SDS011;6128;59.340;18.040;2023-07-09T05:54:41;2.37;;;2.27;;
12129;SDS011;6128;59.340;18.040;2023-07-09T05:57:10;2.30;;;2.20;;
12129;SDS011;6128;59.340;18.040;2023-07-09T05:59:37;2.15;;;2.05;;
12129;SDS011;6128;59.340;18.040;2023-07-09T06:02:04;2.30;;;2.20;;
12129;SDS011;6128;59.340;18.040;2023-07-09T06:04:39;2.50;;;2.30;;
12129;SDS011;6128;59.340;18.040;2023-07-09T06:07:07;2.33;;;2.00;;
12129;SDS011;6128;59.340;18.040;2023-07-09T06:09:34;2.10;;;2.00;;
12129;SDS011;6128;59.340;18.040;2023-07-09T06:12:01;2.00;;;1.90;;
12129;SDS011;6128;59.340;18.040;2023-07-09T06:14:31;2.08;;;1.98;;
12129;SDS011;6128;59.340;18.040;2023-07-09T06:16:59;2.13;;;1.80;;
12129;SDS011;6128;59.340;18.040;2023-07-09T06:19:26;1.92;;;1.80;;
12129;SDS011;6128;59.340;18.040;2023-07-09T06:21:54;1.85;;;1.75;;
12129;SDS011;6128;59.340;18.040;2023-07-09T06:24:21;2.38;;;2.00;;
12129;SDS011;6128;59.340;18.040;2023-07-09T06:26:49;1.80;;;1.70;;
12129;SDS011;6128;59.340;18.040;2023-07-09T06:29:16;1.92;;;1.60;;
12129;SDS011;6128;59.340;18.040;2023-07-09T06:31:44;2.63;;;1.50;;
12129;SDS011;6128;59.340;18.040;2023-07-09T06:34:11;1.63;;;1.48;;
12129;SDS011;6128;59.340;18.040;2023-07-09T06:36:39;2.65;;;1.42;;
12129;SDS011;6128;59.340;18.040;2023-07-09T06:39:08;2.45;;;1.42;;
12129;SDS011;6128;59.340;18.040;2023-07-09T06:41:36;1.42;;;1.33;;
12129;SDS011;6128;59.340;18.040;2023-07-09T06:44:04;1.70;;;1.60;;
12129;SDS011;6128;59.340;18.040;2023-07-09T06:46:32;1.63;;;1.45;;
12129;SDS011;6128;59.340;18.040;2023-07-09T06:49:00;1.50;;;1.42;;
12129;SDS011;6128;59.340;18.040;2023-07-09T06:51:30;1.17;;;1.17;;
12129;SDS011;6128;59.340;18.040;2023-07-09T06:53:57;1.40;;;1.30;;
12129;SDS011;6128;59.340;18.040;2023-07-09T06:56:25;1.67;;;1.40;;
12129;SDS011;6128;59.340;18.040;2023-07-09T06:58:54;1.50;;;1.40;;
12129;SDS011;6128;59.340;18.040;2023-07-09T07:01:23;1.33;;;1.23;;
12129;SDS011;6128;59.340;18.040;2023-07-09T07:03:51;1.42;;;1.33;;
12129;SDS011;6128;59.340;18.040;2023-07-09T07:06:19;1.90;;;1.30;;
12129;SDS011;6128;59.340;18.040;2023-07-09T07:08:46;1.85;;;1.00;;
12129;SDS011;6128;59.340;18.040;2023-07-09T07:11:14;0.80;;;0.80;;
12129;SDS011;6128;59.340;18.040;2023-07-09T07:13:42;0.80;;;0.80;;
12129;SDS011;6128;59.340;18.040;2023-07-09T07:16:11;0.93;;;0.90;;
12129;SDS011;6128;59.340;18.040;2023-07-09T07:18:39;0.60;;;0.60;;
12129;SDS011;6128;59.340;18.040;2023-07-09T07:21:06;0.40;;;0.40;;
12129;SDS011;6128;59.340;18.040;2023-07-09T07:23:34;0.57;;;0.57;;
12129;SDS011;6128;59.340;18.040;2023-07-09T07:26:02;1.40;;;0.93;;
12129;SDS011;6128;59.340;18.040;2023-07-09T07:28:30;0.90;;;0.90;;
12129;SDS011;6128;59.340;18.040;2023-07-09T07:30:57;0.60;;;0.50;;
12129;SDS011;6128;59.340;18.040;2023-07-09T07:33:26;0.85;;;0.85;;
12129;SDS011;6128;59.340;18.040;2023-07-09T07:35:53;0.73;;;0.70;;
12129;SDS011;6128;59.340;18.040;2023-07-09T07:38:20;0.73;;;0.73;;
12129;SDS011;6128;59.340;18.040;2023-07-09T07:40:48;0.80;;;0.80;;
12129;SDS011;6128;59.340;18.040;2023-07-09T07:43:16;0.82;;;0.70;;
12129;SDS011;6128;59.340;18.040;2023-07-09T07:45:43;0.75;;;0.75;;
12129;SDS011;6128;59.340;18.040;2023-07-09T07:48:10;0.95;;;0.90;;
12129;SDS011;6128;59.340;18.040;2023-07-09T07:50:39;1.30;;;1.00;;
12129;SDS011;6128;59.340;18.040;2023-07-09T07:53:06;1.15;;;1.05;;
12129;SDS011;6128;59.340;18.040;2023-07-09T07:55:34;1.00;;;1.00;;
12129;SDS011;6128;59.340;18.040;2023-07-09T07:58:05;1.33;;;1.23;;
12129;SDS011;6128;59.340;18.040;2023-07-09T08:00:35;2.15;;;1.20;;
12129;SDS011;6128;59.340;18.040;2023-07-09T08:03:06;1.88;;;1.17;;
12129;SDS011;6128;59.340;18.040;2023-07-09T08:05:35;0.80;;;0.80;;
12129;SDS011;6128;59.340;18.040;2023-07-09T08:08:05;1.40;;;1.30;;
12129;SDS011;6128;59.340;18.040;2023-07-09T08:10:35;1.20;;;1.20;;
12129;SDS011;6128;59.340;18.040;2023-07-09T08:13:03;1.10;;;1.10;;
12129;SDS011;6128;59.340;18.040;2023-07-09T08:15:30;1.17;;;1.17;;
12129;SDS011;6128;59.340;18.040;2023-07-09T08:17:59;1.25;;;1.15;;
12129;SDS011;6128;59.340;18.040;2023-07-09T08:20:29;1.10;;;1.00;;
12129;SDS011;6128;59.340;18.040;2023-07-09T08:22:58;1.30;;;1.20;;
12129;SDS011;6128;59.340;18.040;2023-07-09T08:25:25;1.45;;;1.35;;
12129;SDS011;6128;59.340;18.040;2023-07-09T08:27:52;1.00;;;1.00;;
12129;SDS011;6128;59.340;18.040;2023-07-09T08:30:24;1.08;;;1.02;;
12129;SDS011;6128;59.340;18.040;2023-07-09T08:32:55;1.30;;;0.90;;
12129;SDS011;6128;59.340;18.040;2023-07-09T08:35:23;1.00;;;1.00;;
12129;SDS011;6128;59.340;18.040;2023-07-09T08:37:52;1.08;;;1.05;;
12129;SDS011;6128;59.340;18.040;2023-07-09T08:40:20;1.02;;;1.00;;
12129;SDS011;6128;59.340;18.040;2023-07-09T08:42:49;1.35;;;0.90;;
12129;SDS011;6128;59.340;18.040;2023-07-09T08:45:24;1.10;;;1.10;;
12129;SDS011;6128;59.340;18.040;2023-07-09T08:48:03;1.10;;;1.00;;
12129;SDS011;6128;59.340;18.040;2023-07-09T08:50:35;1.45;;;1.33;;
12129;SDS011;6128;59.340;18.040;2023-07-09T08:53:04;1.17;;;1.15;;
12129;SDS011;6128;59.340;18.040;2023-07-09T08:55:35;1.23;;;1.20;;
12129;SDS011;6128;59.340;18.040;2023-07-09T08:58:09;1.27;;;1.17;;
12129;SDS011;6128;59.340;18.040;2023-07-09T09:00:43;1.48;;;1.10;;
12129;SDS011;6128;59.340;18.040;2023-07-09T09:03:22;1.00;;;1.00;;
12129;SDS011;6128;59.340;18.040;2023-07-09T09:05:55;1.40;;;1.30;;
12129;SDS011;6128;59.340;18.040;2023-07-09T09:08:28;1.13;;;1.02;;
12129;SDS011;6128;59.340;18.040;2023-07-09T09:11:05;1.25;;;1.20;;
12129;SDS011;6128;59.340;18.040;2023-07-09T09:13:39;1.25;;;1.00;;
12129;SDS011;6128;59.340;18.040;2023-07-09T09:16:12;1.20;;;1.20;;
12129;SDS011;6128;59.340;18.040;2023-07-09T09:18:47;1.65;;;1.55;;
12129;SDS011;6128;59.340;18.040;2023-07-09T09:21:17;1.35;;;1.20;;
12129;SDS011;6128;59.340;18.040;2023-07-09T09:23:49;1.40;;;1.40;;
12129;SDS011;6128;59.340;18.040;2023-07-09T09:26:21;1.10;;;1.10;;
12129;SDS011;6128;59.340;18.040;2023-07-09T09:28:51;1.50;;;1.13;;
12129;SDS011;6128;59.340;18.040;2023-07-09T09:31:20;1.48;;;1.38;;
12129;SDS011;6128;59.340;18.040;2023-07-09T09:33:50;2.03;;;1.73;;
12129;SDS011;6128;59.340;18.040;2023-07-09T09:36:19;1.33;;;1.23;;
12129;SDS011;6128;59.340;18.040;2023-07-09T09:38:47;1.40;;;1.30;;
12129;SDS011;6128;59.340;18.040;2023-07-09T09:41:16;2.10;;;2.00;;
12129;SDS011;6128;59.340;18.040;2023-07-09T09:43:45;4.55;;;4.25;;
12129;SDS011;6128;59.340;18.040;2023-07-09T09:46:16;1.48;;;1.38;;
12129;SDS011;6128;59.340;18.040;2023-07-09T09:48:47;1.60;;;1.50;;
12129;SDS011;6128;59.340;18.040;2023-07-09T09:51:16;2.30;;;1.70;;
12129;SDS011;6128;59.340;18.040;2023-07-09T09:53:46;1.60;;;1.50;;
12129;SDS011;6128;59.340;18.040;2023-07-09T09:56:17;1.48;;;1.38;;
12129;SDS011;6128;59.340;18.040;2023-07-09T09:58:45;2.65;;;1.50;;
12129;SDS011;6128;59.340;18.040;2023-07-09T10:01:18;1.65;;;1.27;;
12129;SDS011;6128;59.340;18.040;2023-07-09T10:03:51;1.50;;;1.40;;
12129;SDS011;6128;59.340;18.040;2023-07-09T10:06:22;1.33;;;1.25;;
12129;SDS011;6128;59.340;18.040;2023-07-09T10:08:59;1.77;;;1.25;;
12129;SDS011;6128;59.340;18.040;2023-07-09T10:11:31;3.05;;;1.35;;
12129;SDS011;6128;59.340;18.040;2023-07-09T10:14:14;1.00;;;1.00;;
12129;SDS011;6128;59.340;18.040;2023-07-09T10:16:53;1.92;;;1.10;;
12129;SDS011;6128;59.340;18.040;2023-07-09T10:19:30;1.30;;;1.20;;
12129;SDS011;6128;59.340;18.040;2023-07-09T10:22:06;1.23;;;0.98;;
12129;SDS011;6128;59.340;18.040;2023-07-09T10:24:42;1.40;;;1.25;;
12129;SDS011;6128;59.340;18.040;2023-07-09T10:27:16;1.00;;;1.00;;
12129;SDS011;6128;59.340;18.040;2023-07-09T10:29:55;1.30;;;1.20;;
12129;SDS011;6128;59.340;18.040;2023-07-09T10:32:36;0.80;;;0.80;;
12129;SDS011;6128;59.340;18.040;2023-07-09T10:35:16;0.85;;;0.82;;
12129;SDS011;6128;59.340;18.040;2023-07-09T10:37:56;1.08;;;0.95;;
12129;SDS011;6128;59.340;18.040;2023-07-09T10:40:40;1.20;;;0.75;;
12129;SDS011;6128;59.340;18.040;2023-07-09T10:43:13;0.95;;;0.95;;
12129;SDS011;6128;59.340;18.040;2023-07-09T10:45:44;1.40;;;0.98;;
12129;SDS011;6128;59.340;18.040;2023-07-09T10:48:16;0.80;;;0.80;;
12129;SDS011;6128;59.340;18.040;2023-07-09T10:50:46;2.55;;;0.90;;
12129;SDS011;6128;59.340;18.040;2023-07-09T10:53:22;0.70;;;0.70;;
12129;SDS011;6128;59.340;18.040;2023-07-09T10:55:57;0.73;;;0.73;;
12129;SDS011;6128;59.340;18.040;2023-07-09T10:58:31;0.80;;;0.80;;
12129;SDS011;6128;59.340;18.040;2023-07-09T11:01:02;0.80;;;0.80;;
12129;SDS011;6128;59.340;18.040;2023-07-09T11:03:33;1.27;;;0.88;;
12129;SDS011;6128;59.340;18.040;2023-07-09T11:06:08;1.00;;;0.90;;
12129;SDS011;6128;59.340;18.040;2023-07-09T11:08:42;0.73;;;0.73;;
12129;SDS011;6128;59.340;18.040;2023-07-09T11:11:14;1.20;;;1.10;;
12129;SDS011;6128;59.340;18.040;2023-07-09T11:13:50;0.82;;;0.82;;
12129;SDS011;6128;59.340;18.040;2023-07-09T11:16:24;0.73;;;0.60;;
12129;SDS011;6128;59.340;18.040;2023-07-09T11:18:58;1.27;;;1.02;;
12129;SDS011;6128;59.340;18.040;2023-07-09T11:21:28;0.70;;;0.70;;
12129;SDS011;6128;59.340;18.040;2023-07-09T11:23:56;0.77;;;0.77;;
12129;SDS011;6128;59.340;18.040;2023-07-09T11:26:26;0.88;;;0.88;;
12129;SDS011;6128;59.340;18.040;2023-07-09T11:28:55;1.95;;;0.90;;
12129;SDS011;6128;59.340;18.040;2023-07-09T11:31:40;1.10;;;0.98;;
12129;SDS011;6128;59.340;18.040;2023-07-09T11:34:10;1.48;;;0.82;;
12129;SDS011;6128;59.340;18.040;2023-07-09T11:36:48;0.95;;;0.90;;
12129;SDS011;6128;59.340;18.040;2023-07-09T11:39:17;0.98;;;0.98;;
12129;SDS011;6128;59.340;18.040;2023-07-09T11:41:47;1.00;;;0.90;;
12129;SDS011;6128;59.340;18.040;2023-07-09T11:44:15;1.30;;;1.10;;
12129;SDS011;6128;59.340;18.040;2023-07-09T11:46:49;3.15;;;0.98;;
12129;SDS011;6128;59.340;18.040;2023-07-09T11:49:21;0.90;;;0.90;;
12129;SDS011;6128;59.340;18.040;2023-07-09T11:51:54;0.80;;;0.80;;
12129;SDS011;6128;59.340;18.040;2023-07-09T11:54:25;0.80;;;0.80;;
12129;SDS011;6128;59.340;18.040;2023-07-09T11:56:53;0.95;;;0.88;;
12129;SDS011;6128;59.340;18.040;2023-07-09T11:59:20;0.70;;;0.70;;
12129;SDS011;6128;59.340;18.040;2023-07-09T12:01:47;1.08;;;0.98;;
12129;SDS011;6128;59.340;18.040;2023-07-09T12:04:17;1.20;;;1.10;;
12129;SDS011;6128;59.340;18.040;2023-07-09T12:06:46;1.67;;;1.00;;
12129;SDS011;6128;59.340;18.040;2023-07-09T12:09:15;1.55;;;0.95;;
12129;SDS011;6128;59.340;18.040;2023-07-09T12:11:44;1.58;;;0.73;;
12129;SDS011;6128;59.340;18.040;2023-07-09T12:14:12;1.08;;;0.68;;
12129;SDS011;6128;59.340;18.040;2023-07-09T12:16:41;1.27;;;0.85;;
12129;SDS011;6128;59.340;18.040;2023-07-09T12:19:11;1.38;;;0.70;;
12129;SDS011;6128;59.340;18.040;2023-07-09T12:21:40;1.20;;;1.00;;
12129;SDS011;6128;59.340;18.040;2023-07-09T12:24:17;1.00;;;0.90;;
12129;SDS011;6128;59.340;18.040;2023-07-09T12:26:48;0.85;;;0.85;;
12129;SDS011;6128;59.340;18.040;2023-07-09T12:29:15;0.90;;;0.90;;
12129;SDS011;6128;59.340;18.040;2023-07-09T12:31:42;1.10;;;1.00;;
12129;SDS011;6128;59.340;18.040;2023-07-09T12:34:11;2.85;;;1.08;;
12129;SDS011;6128;59.340;18.040;2023-07-09T12:36:41;1.42;;;0.90;;
12129;SDS011;6128;59.340;18.040;2023-07-09T12:39:12;1.77;;;0.90;;
12129;SDS011;6128;59.340;18.040;2023-07-09T12:41:44;0.80;;;0.80;;
12129;SDS011;6128;59.340;18.040;2023-07-09T12:44:15;1.17;;;1.00;;
12129;SDS011;6128;59.340;18.040;2023-07-09T12:46:44;0.88;;;0.88;;
12129;SDS011;6128;59.340;18.040;2023-07-09T12:49:20;1.65;;;0.73;;
12129;SDS011;6128;59.340;18.040;2023-07-09T12:51:49;0.90;;;0.80;;
12129;SDS011;6128;59.340;18.040;2023-07-09T12:54:17;0.93;;;0.80;;
12129;SDS011;6128;59.340;18.040;2023-07-09T12:56:49;0.73;;;0.68;;
12129;SDS011;6128;59.340;18.040;2023-07-09T12:59:19;1.95;;;1.20;;
12129;SDS011;6128;59.340;18.040;2023-07-09T13:01:48;1.13;;;0.82;;
12129;SDS011;6128;59.340;18.040;2023-07-09T13:04:17;0.77;;;0.70;;
12129;SDS011;6128;59.340;18.040;2023-07-09T13:06:44;0.77;;;0.77;;
12129;SDS011;6128;59.340;18.040;2023-07-09T13:09:15;1.05;;;0.73;;
12129;SDS011;6128;59.340;18.040;2023-07-09T13:11:48;0.80;;;0.80;;
12129;SDS011;6128;59.340;18.040;2023-07-09T13:14:16;1.10;;;1.00;;
12129;SDS011;6128;59.340;18.040;2023-07-09T13:16:46;0.80;;;0.80;;
12129;SDS011;6128;59.340;18.040;2023-07-09T13:19:13;1.48;;;0.90;;
12129;SDS011;6128;59.340;18.040;2023-07-09T13:21:41;1.10;;;1.00;;
12129;SDS011;6128;59.340;18.040;2023-07-09T13:24:11;0.93;;;0.70;;
12129;SDS011;6128;59.340;18.040;2023-07-09T13:26:42;0.82;;;0.82;;
12129;SDS011;6128;59.340;18.040;2023-07-09T13:29:13;0.85;;;0.85;;
12129;SDS011;6128;59.340;18.040;2023-07-09T13:31:42;0.70;;;0.70;;
12129;SDS011;6128;59.340;18.040;2023-07-09T13:34:14;1.65;;;0.80;;
12129;SDS011;6128;59.340;18.040;2023-07-09T13:36:45;0.88;;;0.88;;
12129;SDS011;6128;59.340;18.040;2023-07-09T13:39:13;1.02;;;0.85;;
12129;SDS011;6128;59.340;18.040;2023-07-09T13:41:42;1.45;;;0.90;;
12129;SDS011;6128;59.340;18.040;2023-07-09T13:44:13;1.55;;;0.88;;
12129;SDS011;6128;59.340;18.040;2023-07-09T13:46:42;2.92;;;1.00;;
12129;SDS011;6128;59.340;18.040;2023-07-09T13:49:10;1.58;;;0.80;;
12129;SDS011;6128;59.340;18.040;2023-07-09T13:51:39;1.42;;;1.23;;
12129;SDS011;6128;59.340;18.040;2023-07-09T13:54:12;1.55;;;1.45;;
12129;SDS011;6128;59.340;18.040;2023-07-09T13:56:42;1.70;;;1.60;;
12129;SDS011;6128;59.340;18.040;2023-07-09T13:59:14;1.80;;;1.70;;
12129;SDS011;6128;59.340;18.040;2023-07-09T14:01:42;1.52;;;1.42;;
12129;SDS011;6128;59.340;18.040;2023-07-09T14:04:10;1.70;;;1.30;;
12129;SDS011;6128;59.340;18.040;2023-07-09T14:06:38;2.42;;;1.67;;
12129;SDS011;6128;59.340;18.040;2023-07-09T14:09:06;1.60;;;1.50;;
12129;SDS011;6128;59.340;18.040;2023-07-09T14:11:35;2.65;;;2.05;;
12129;SDS011;6128;59.340;18.040;2023-07-09T14:14:09;1.40;;;1.17;;
12129;SDS011;6128;59.340;18.040;2023-07-09T14:16:43;1.70;;;1.60;;
12129;SDS011;6128;59.340;18.040;2023-07-09T14:19:12;1.63;;;1.48;;
12129;SDS011;6128;59.340;18.040;2023-07-09T14:21:41;1.85;;;1.75;;
12129;SDS011;6128;59.340;18.040;2023-07-09T14:24:14;1.60;;;1.50;;
12129;SDS011;6128;59.340;18.040;2023-07-09T14:26:44;1.85;;;1.75;;
12129;SDS011;6128;59.340;18.040;2023-07-09T14:29:12;1.98;;;1.55;;
12129;SDS011;6128;59.340;18.040;2023-07-09T14:31:41;3.15;;;1.50;;
12129;SDS011;6128;59.340;18.040;2023-07-09T14:34:20;1.20;;;1.20;;
12129;SDS011;6128;59.340;18.040;2023-07-09T14:36:49;2.45;;;1.10;;
12129;SDS011;6128;59.340;18.040;2023-07-09T14:39:18;1.60;;;1.40;;
12129;SDS011;6128;59.340;18.040;2023-07-09T14:41:45;1.50;;;1.40;;
12129;SDS011;6128;59.340;18.040;2023-07-09T14:46:59;1.40;;;1.30;;
12129;SDS011;6128;59.340;18.040;2023-07-09T14:49:27;2.35;;;1.50;;
12129;SDS011;6128;59.340;18.040;2023-07-09T14:51:54;1.33;;;1.23;;
12129;SDS011;6128;59.340;18.040;2023-07-09T14:54:24;1.27;;;1.17;;
12129;SDS011;6128;59.340;18.040;2023-07-09T14:56:52;1.88;;;1.42;;
12129;SDS011;6128;59.340;18.040;2023-07-09T14:59:20;1.60;;;1.50;;
12129;SDS011;6128;59.340;18.040;2023-07-09T15:01:47;1.42;;;1.33;;
12129;SDS011;6128;59.340;18.040;2023-07-09T15:04:22;1.65;;;1.52;;
12129;SDS011;6128;59.340;18.040;2023-07-09T15:06:54;1.35;;;1.25;;